createdAt,value
2018-12-02T00:02:08.265Z,1.40
2018-12-02T00:07:18.250Z,1.20
2018-12-02T00:12:28.257Z,1.40
2018-12-02T00:17:39.387Z,1.40
2018-12-02T00:22:48.875Z,2.40
2018-12-02T00:27:59.658Z,0.90
2018-12-02T00:33:09.128Z,1.10
2018-12-02T00:38:18.920Z,1.07
2018-12-02T00:43:29.143Z,1.60
2018-12-02T00:48:38.711Z,1.40
2018-12-02T00:53:48.429Z,1.53
2018-12-02T00:58:57.929Z,1.23
2018-12-02T01:04:07.372Z,1.50
2018-12-02T01:09:17.090Z,1.37
2018-12-02T01:14:26.609Z,1.60
2018-12-02T01:19:36.330Z,1.57
2018-12-02T01:24:46.307Z,1.70
2018-12-02T01:29:55.834Z,1.40
2018-12-02T01:35:05.529Z,1.37
2018-12-02T01:40:16.319Z,1.30
2018-12-02T01:45:26.229Z,1.30
2018-12-02T01:50:35.738Z,1.33
2018-12-02T01:55:45.360Z,1.27
2018-12-02T02:00:54.964Z,1.20
2018-12-02T02:06:04.799Z,1.30
2018-12-02T02:11:14.342Z,1.20
2018-12-02T02:16:24.991Z,1.13
2018-12-02T02:21:35.337Z,1.33
2018-12-02T02:26:44.741Z,1.43
2018-12-02T02:31:54.363Z,1.27
2018-12-02T02:37:04.113Z,1.50
2018-12-02T02:42:13.715Z,1.50
2018-12-02T02:47:23.339Z,1.20
2018-12-02T02:52:32.822Z,1.30
2018-12-02T02:57:42.873Z,2.10
2018-12-02T03:02:52.251Z,2.30
2018-12-02T03:08:01.641Z,1.80
2018-12-02T03:13:11.777Z,2.93
2018-12-02T03:18:21.340Z,3.03
2018-12-02T03:23:30.892Z,2.70
2018-12-02T03:28:40.540Z,2.97
2018-12-02T03:33:50.126Z,2.03
2018-12-02T03:38:59.697Z,3.00
2018-12-02T03:44:09.086Z,2.17
2018-12-02T03:49:18.619Z,3.00
2018-12-02T03:54:28.264Z,3.37
2018-12-02T03:59:37.830Z,2.73
2018-12-02T04:04:47.542Z,1.57
2018-12-02T04:09:57.103Z,2.70
2018-12-02T04:15:09.184Z,2.27
2018-12-02T04:20:19.331Z,2.67
2018-12-02T04:25:28.746Z,2.40
2018-12-02T04:30:38.432Z,2.73
2018-12-02T04:35:47.825Z,2.60
2018-12-02T04:40:57.300Z,2.73
2018-12-02T04:46:06.761Z,2.73
2018-12-02T04:51:17.029Z,3.27
2018-12-02T04:56:26.489Z,3.03
2018-12-02T05:01:36.094Z,2.37
2018-12-02T05:06:45.688Z,3.10
2018-12-02T05:11:55.341Z,2.47
2018-12-02T05:17:06.063Z,2.93
2018-12-02T05:22:15.495Z,2.67
2018-12-02T05:27:25.225Z,2.67
2018-12-02T05:32:34.753Z,2.30
2018-12-02T05:37:44.197Z,2.33
2018-12-02T05:42:54.119Z,2.93
2018-12-02T05:48:03.568Z,2.10
2018-12-02T05:53:13.274Z,1.60
2018-12-02T05:58:24.399Z,2.13
2018-12-02T06:03:34.018Z,1.60
2018-12-02T06:08:43.770Z,2.47
2018-12-02T06:13:53.171Z,1.73
2018-12-02T06:19:03.613Z,2.47
2018-12-02T06:24:13.303Z,2.10
2018-12-02T06:29:22.717Z,2.00
2018-12-02T06:34:32.364Z,1.77
2018-12-02T06:39:41.807Z,2.53
2018-12-02T06:44:51.586Z,2.77
2018-12-02T06:50:01.178Z,2.73
2018-12-02T06:55:23.685Z,3.13
2018-12-02T07:00:46.121Z,3.80
2018-12-02T07:05:55.547Z,4.70
2018-12-02T07:11:05.168Z,4.93
2018-12-02T07:16:14.743Z,4.37
2018-12-02T07:21:24.477Z,4.17
2018-12-02T07:26:34.087Z,4.47
2018-12-02T07:31:43.670Z,4.60
2018-12-02T07:36:53.813Z,4.47
2018-12-02T07:42:03.476Z,4.10
2018-12-02T07:47:13.036Z,4.93
2018-12-02T07:52:22.425Z,4.87
2018-12-02T07:57:32.004Z,5.93
2018-12-02T08:02:41.515Z,6.40
2018-12-02T08:07:51.480Z,4.40
2018-12-02T08:13:01.136Z,5.33
2018-12-02T08:18:11.766Z,5.17
2018-12-02T08:23:21.837Z,5.43
2018-12-02T08:28:31.661Z,4.53
2018-12-02T08:33:42.008Z,4.43
2018-12-02T08:38:52.261Z,3.47
2018-12-02T08:44:02.907Z,3.97
2018-12-02T08:49:12.676Z,3.50
2018-12-02T08:54:22.205Z,3.03
2018-12-02T08:59:31.846Z,3.47
2018-12-02T09:04:41.903Z,2.87
2018-12-02T09:09:59.313Z,3.00
2018-12-02T09:15:01.624Z,3.47
2018-12-02T09:20:18.176Z,3.03
2018-12-02T09:25:28.002Z,3.00
2018-12-02T09:30:38.231Z,2.83
2018-12-02T09:35:48.288Z,3.40
2018-12-02T09:40:57.984Z,4.07
2018-12-02T09:46:07.885Z,3.27
2018-12-02T09:51:17.758Z,4.30
2018-12-02T09:56:27.568Z,4.73
2018-12-02T10:01:37.063Z,4.87
2018-12-02T10:06:47.991Z,3.97
2018-12-02T10:11:57.785Z,3.63
2018-12-02T10:17:07.879Z,5.00
2018-12-02T10:22:17.525Z,4.67
2018-12-02T10:27:27.175Z,4.00
2018-12-02T10:32:36.951Z,5.50
2018-12-02T10:37:46.691Z,5.03
2018-12-02T10:42:56.286Z,5.93
2018-12-02T10:48:09.256Z,6.67
2018-12-02T10:53:21.216Z,7.20
2018-12-02T10:58:32.489Z,9.33
2018-12-02T11:03:42.085Z,7.00
2018-12-02T11:08:51.574Z,6.10
2018-12-02T11:14:01.249Z,6.10
2018-12-02T11:19:11.112Z,4.63
2018-12-02T11:24:20.856Z,4.87
2018-12-02T11:29:30.471Z,4.50
2018-12-02T11:34:40.273Z,4.90
2018-12-02T11:39:49.978Z,4.53
2018-12-02T11:44:59.563Z,4.37
2018-12-02T11:50:14.247Z,5.10
2018-12-02T11:55:24.038Z,4.70
2018-12-02T12:00:35.086Z,4.07
2018-12-02T12:05:44.943Z,3.50
2018-12-02T12:10:54.793Z,4.57
2018-12-02T12:16:04.278Z,4.07
2018-12-02T12:21:13.850Z,3.57
2018-12-02T12:26:25.739Z,3.60
2018-12-02T12:31:37.828Z,4.53
2018-12-02T12:36:47.769Z,4.63
2018-12-02T12:41:59.722Z,4.57
2018-12-02T12:47:09.479Z,4.37
2018-12-02T12:52:19.129Z,5.23
2018-12-02T12:57:28.911Z,4.40
2018-12-02T13:02:39.001Z,4.40
2018-12-02T13:07:48.603Z,3.90
2018-12-02T13:12:58.679Z,3.50
2018-12-02T13:18:09.521Z,3.50
2018-12-02T13:23:19.213Z,3.57
2018-12-02T13:28:28.943Z,3.17
2018-12-02T13:33:39.876Z,3.50
2018-12-02T13:38:50.666Z,2.93
2018-12-02T13:44:00.722Z,3.00
2018-12-02T13:49:11.385Z,2.87
2018-12-02T13:54:26.473Z,2.77
2018-12-02T13:59:36.311Z,3.47
2018-12-02T14:04:46.194Z,3.83
2018-12-02T14:09:55.864Z,3.50
2018-12-02T14:17:17.232Z,4.57
2018-12-02T14:22:27.041Z,5.53
2018-12-02T14:27:36.823Z,5.13
2018-12-02T14:32:46.579Z,5.73
2018-12-02T14:37:56.912Z,4.70
2018-12-02T14:43:07.326Z,3.83
2018-12-02T14:48:16.880Z,7.33
2018-12-02T14:53:26.540Z,6.80
2018-12-02T14:58:36.344Z,6.33
2018-12-02T15:03:46.292Z,9.33
2018-12-02T15:08:55.863Z,6.60
2018-12-02T15:14:08.288Z,5.70
2018-12-02T15:19:18.113Z,7.53
2018-12-02T15:24:32.577Z,6.20
2018-12-02T15:29:42.723Z,5.10
2018-12-02T15:34:52.576Z,6.10
2018-12-02T15:40:02.642Z,4.83
2018-12-02T15:45:13.500Z,10.30
2018-12-02T15:50:24.368Z,7.23
2018-12-02T15:55:35.996Z,8.10
2018-12-02T16:00:46.610Z,6.73
2018-12-02T16:05:56.881Z,6.13
2018-12-02T16:11:07.180Z,6.83
2018-12-02T16:16:18.431Z,9.90
2018-12-02T16:21:28.542Z,6.67
2018-12-02T16:26:38.939Z,6.40
2018-12-02T16:31:49.981Z,7.13
2018-12-02T16:36:59.864Z,5.40
2018-12-02T16:42:09.904Z,4.73
2018-12-02T16:47:19.764Z,6.70
2018-12-02T16:52:29.686Z,5.87
2018-12-02T16:57:40.516Z,5.70
2018-12-02T17:02:50.950Z,6.13
2018-12-02T17:08:00.924Z,5.20
2018-12-02T17:13:10.945Z,6.00
2018-12-02T17:18:21.074Z,7.87
2018-12-02T17:23:31.195Z,5.37
2018-12-02T17:28:41.061Z,5.80
2018-12-02T17:33:51.056Z,4.83
2018-12-02T17:39:09.214Z,5.57
2018-12-02T17:44:19.249Z,5.27
2018-12-02T17:49:28.893Z,5.00
2018-12-02T17:54:38.667Z,4.10
2018-12-02T17:59:55.682Z,3.33
2018-12-02T18:05:08.401Z,7.23
2018-12-02T18:10:19.405Z,11.50
2018-12-02T18:15:29.240Z,4.23
2018-12-02T18:20:38.876Z,5.00
2018-12-02T18:25:48.685Z,4.97
2018-12-02T18:30:58.395Z,5.50
2018-12-02T18:36:18.972Z,4.37
2018-12-02T18:41:48.794Z,4.40
2018-12-02T18:46:58.744Z,6.37
2018-12-02T18:57:23.042Z,3.40
2018-12-02T19:02:32.718Z,3.87
2018-12-02T19:07:42.967Z,3.17
2018-12-02T19:12:53.878Z,3.60
2018-12-02T19:18:03.879Z,2.57
2018-12-02T19:23:17.339Z,3.10
2018-12-02T19:28:27.478Z,3.33
2018-12-02T19:33:37.541Z,3.37
2018-12-02T19:38:47.479Z,2.60
2018-12-02T19:43:57.408Z,2.70
2018-12-02T19:49:07.424Z,2.83
2018-12-02T19:54:17.536Z,2.40
2018-12-02T19:59:27.264Z,2.50
2018-12-02T20:04:37.313Z,2.70
2018-12-02T20:09:47.787Z,2.60
2018-12-02T20:14:58.836Z,2.20
2018-12-02T20:20:22.331Z,2.40
2018-12-02T20:25:32.903Z,2.60
2018-12-02T20:30:43.131Z,3.10
2018-12-02T20:35:53.361Z,3.00
2018-12-02T20:41:03.525Z,5.97
2018-12-02T20:46:14.697Z,6.00
2018-12-02T20:51:27.215Z,5.90
2018-12-02T20:56:37.676Z,5.20
2018-12-02T21:01:47.511Z,6.73
2018-12-02T21:06:57.399Z,7.13
2018-12-02T21:12:08.635Z,5.13
2018-12-02T21:17:19.247Z,7.47
2018-12-02T21:22:28.699Z,6.97
2018-12-02T21:27:38.872Z,5.83
2018-12-02T21:32:48.776Z,6.60
2018-12-02T21:38:03.475Z,7.47
2018-12-02T21:43:13.540Z,24.63
2018-12-02T21:48:23.371Z,38.17
2018-12-02T21:53:34.576Z,30.10
2018-12-02T21:58:45.311Z,45.27
2018-12-02T22:03:58.150Z,81.37
2018-12-02T22:09:10.631Z,37.53
2018-12-02T22:14:21.402Z,51.23
2018-12-02T22:19:45.998Z,122.97
2018-12-02T22:24:56.641Z,94.30
2018-12-02T22:30:10.439Z,61.73
2018-12-02T22:35:22.967Z,68.67
2018-12-02T22:40:32.613Z,77.50
2018-12-02T22:45:42.211Z,47.77
2018-12-02T22:50:53.557Z,40.77
2018-12-02T22:56:03.870Z,72.00
2018-12-02T23:07:16.309Z,74.00
2018-12-02T23:12:26.814Z,39.23
2018-12-02T23:17:36.594Z,29.47
2018-12-02T23:22:46.971Z,29.80
2018-12-02T23:27:56.804Z,23.07
2018-12-02T23:33:07.234Z,13.07
2018-12-02T23:38:28.032Z,10.37
2018-12-02T23:49:40.103Z,8.93
2018-12-02T23:54:49.681Z,10.73
